Flight Track Log - Related Links

Times and Time Zones

All times are in EDT time to prevent confusion due to time zone crossing. See the SWA3206 flight status page for this flight to view local times or setup timezone preferences in your user account.

Time Position Orientation Groundspeed Altitude Reporting Facility
EDT Latitude Longitude Course Direction KTS MPH feet Rate Location/Type
Fri 08:43:19 PM 33.4333 -111.9833 90° East 178 205 2,000  Level Phoenix TRACON
Fri 08:44:07 PM 33.4333 -111.9333 90° East 201 231 3,700 2,824 Climbing Phoenix TRACON
Fri 08:45:01 PM 33.4500 -111.8500 76° East 263 303 6,800 3,163 Climbing Phoenix TRACON
Fri 08:46:16 PM 33.4881 -111.7744 59° Northeast 285 328 10,500 2,803 Climbing Albuquerque Center
Fri 08:47:18 PM 33.5444 -111.6561 60° Northeast 350 403 13,200 2,732 Climbing Albuquerque Center
Fri 08:48:19 PM 33.5878 -111.5381 66° East 386 444 16,100 2,927 Climbing Albuquerque Center
Fri 08:49:21 PM 33.6347 -111.4136 66° East 410 472 19,200 2,829 Climbing Albuquerque Center
Fri 08:50:22 PM 33.6825 -111.2839 66° East 427 491 21,900 2,488 Climbing Albuquerque Center
Fri 08:51:24 PM 33.7311 -111.1475 67° East 445 512 24,300 2,226 Climbing Albuquerque Center
Fri 08:52:26 PM 33.7811 -111.0067 67° East 458 527 26,500 2,098 Climbing Albuquerque Center
Fri 08:53:27 PM 33.8433 -110.8314 67° East 473 544 28,600 1,902 Climbing Albuquerque Center
Fri 08:54:29 PM 33.8978 -110.6803 67° East 486 559 30,400 2,049 Climbing Albuquerque Center
Fri 08:55:30 PM 33.9511 -110.5306 67° East 490 564 32,800 2,000 Climbing Albuquerque Center
Fri 08:56:32 PM 34.0000 -110.3906 67° East 483 556 34,500 1,452 Climbing Albuquerque Center
Fri 08:57:34 PM 34.0528 -110.2431 67° East 482 555 35,800 1,415 Climbing Albuquerque Center
Fri 08:58:35 PM 34.1164 -110.0619 67° East 489 563 37,400 1,366 Climbing Albuquerque Center
Fri 08:59:37 PM 34.1681 -109.9111 67° East 489 563 38,600 780 Climbing Albuquerque Center
Fri 09:00:38 PM 34.2183 -109.7672 67° East 489 563 39,000 195 Climbing Albuquerque Center
Fri 09:01:40 PM 34.2767 -109.5978 67° East 489 563 39,000  Level Albuquerque Center
Fri 09:02:42 PM 34.3261 -109.4522 68° East 489 563 39,000  Level Albuquerque Center
Fri 09:03:43 PM 34.3828 -109.2861 68° East 483 556 39,000  Level Albuquerque Center
Fri 09:04:45 PM 34.4308 -109.1417 68° East 483 556 39,000  Level Albuquerque Center
Fri 09:05:46 PM 34.4794 -109.0014 67° East 478 550 39,000  Level Albuquerque Center
Fri 09:06:48 PM 34.5353 -108.8356 68° East 477 549 39,000 341 Level Albuquerque Center
Fri 09:07:49 PM 34.5842 -108.6906 68° East 481 554 39,700 976 Climbing Albuquerque Center
Fri 09:08:51 PM 34.6397 -108.5239 68° East 479 551 41,000 634 Climbing Albuquerque Center
Fri 09:09:52 PM 34.6814 -108.3969 68° East 475 547 41,000  Level Albuquerque Center
Fri 09:10:54 PM 34.7306 -108.2483 68° East 473 544 41,000  Level Albuquerque Center
Fri 09:11:55 PM 34.7894 -108.0692 68° East 474 545 41,000  Level Albuquerque Center
Fri 09:12:57 PM 34.8378 -107.9217 68° East 472 543 41,000  Level Albuquerque Center
Fri 09:13:58 PM 34.8850 -107.7739 69° East 470 541 41,000  Level Albuquerque Center
Fri 09:14:59 PM 34.9331 -107.6253 68° East 470 541 41,000  Level Albuquerque Center
Fri 09:16:01 PM 34.9806 -107.4769 69° East 471 542 41,000  Level Albuquerque Center
Fri 09:17:03 PM 35.0275 -107.3292 69° East 468 539 41,000  Level Albuquerque Center
Fri 09:18:04 PM 35.0839 -107.1536 69° East 472 543 41,000  Level Albuquerque Center
Fri 09:19:06 PM 35.1294 -107.0106 69° East 472 543 41,000  Level Albuquerque Center
Fri 09:20:07 PM 35.1739 -106.8675 69° East 473 544 41,000  Level Albuquerque Center
Fri 09:21:09 PM 35.2275 -106.6997 69° East 475 547 41,000  Level Albuquerque Center
Fri 09:22:10 PM 35.2728 -106.5558 69° East 475 547 41,000  Level Albuquerque Center
Fri 09:23:11 PM 35.3153 -106.4153 70° East 476 548 41,000  Level Albuquerque Center
Fri 09:24:13 PM 35.3711 -106.2347 69° East 474 545 41,000  Level Albuquerque Center
Fri 09:25:14 PM 35.4186 -106.0828 69° East 475 547 41,000  Level Albuquerque Center
Fri 09:26:16 PM 35.4636 -105.9308 70° East 475 547 41,000  Level Albuquerque Center
Fri 09:27:17 PM 35.5125 -105.7722 69° East 475 547 41,000  Level Albuquerque Center
Fri 09:28:19 PM 35.5589 -105.6186 70° East 475 547 41,000  Level Albuquerque Center
Fri 09:29:20 PM 35.6006 -105.4672 71° East 468 539 41,000  Level Albuquerque Center
Fri 09:30:21 PM 35.6494 -105.3094 69° East 482 555 41,000  Level Albuquerque Center
Fri 09:31:23 PM 35.6953 -105.1561 70° East 476 548 41,000  Level Albuquerque Center
Fri 09:32:24 PM 35.7394 -105.0028 70° East 471 542 41,000  Level Albuquerque Center
Fri 09:33:25 PM 35.7856 -104.8483 70° East 473 544 41,000  Level Albuquerque Center
Fri 09:34:27 PM 35.8308 -104.6939 70° East 473 544 41,000  Level Albuquerque Center
Fri 09:35:28 PM 35.8756 -104.5381 70° East 476 548 41,000  Level Albuquerque Center
Fri 09:36:29 PM 35.9214 -104.3819 70° East 477 549 41,000  Level Albuquerque Center
Fri 09:37:31 PM 35.9664 -104.2247 70° East 479 551 41,000  Level Albuquerque Center
Fri 09:38:32 PM 36.0111 -104.0675 71° East 480 552 41,000  Level Albuquerque Center
Fri 09:39:33 PM 36.0558 -103.9086 71° East 483 556 41,000  Level Albuquerque Center
Fri 09:40:35 PM 36.1069 -103.7300 70° East 472 543 41,000  Level Albuquerque Center
Fri 09:41:36 PM 36.1519 -103.5769 70° East 469 540 41,000  Level Albuquerque Center
Fri 09:42:37 PM 36.1942 -103.4239 71° East 466 536 41,000  Level Albuquerque Center
Fri 09:43:39 PM 36.2369 -103.2703 71° East 466 536 41,000  Level Albuquerque Center
Fri 09:44:40 PM 36.2772 -103.1142 72° East 470 541 41,000  Level Albuquerque Center
Fri 09:45:41 PM 36.3206 -102.9578 71° East 474 545 41,000  Level Albuquerque Center
Fri 09:46:43 PM 36.3581 -102.8197 71° East 470 541 41,000  Level Albuquerque Center
Fri 09:47:44 PM 36.3997 -102.6697 71° East 462 532 41,000  Level Albuquerque Center
Fri 09:48:45 PM 36.4497 -102.4858 71° East 466 536 41,000  Level Albuquerque Center
Fri 09:49:47 PM 36.4897 -102.3358 72° East 462 532 41,000  Level Albuquerque Center
Fri 09:50:48 PM 36.5289 -102.1869 72° East 455 524 41,000  Level Albuquerque Center
Fri 09:51:49 PM 36.5678 -102.0372 72° East 455 524 41,000  Level Albuquerque Center
Fri 09:52:51 PM 36.6067 -101.8911 72° East 455 524 41,000  Level Albuquerque Center
Fri 09:53:52 PM 36.6517 -101.7208 72° East 461 531 41,000  Level Albuquerque Center
Fri 09:54:53 PM 36.6886 -101.5731 73° East 466 536 41,000  Level Albuquerque Center
Fri 09:55:55 PM 36.7267 -101.4289 72° East 464 534 41,000  Level Albuquerque Center
Fri 09:57:08 PM 36.7764 -101.2372 72° East 458 527 41,000  Level Kansas City Center
Fri 09:58:09 PM 36.8194 -101.0686 72° East 458 527 41,000  Level Kansas City Center
Fri 09:59:14 PM 36.8556 -100.9244 73° East 458 527 41,000  Level Kansas City Center
Fri 10:00:16 PM 36.8975 -100.7572 73° East 456 525 41,000  Level Kansas City Center
Fri 10:01:17 PM 36.9344 -100.6119 72° East 457 526 41,000  Level Kansas City Center
Fri 10:02:19 PM 36.9764 -100.4422 73° East 461 531 41,000  Level Kansas City Center
Fri 10:03:20 PM 37.0131 -100.2956 73° East 463 533 41,000  Level Kansas City Center
Fri 10:04:22 PM 37.0553 -100.1281 72° East 458 527 41,000  Level Kansas City Center
Fri 10:05:23 PM 37.0911 -99.9839 73° East 455 524 41,000  Level Kansas City Center
Fri 10:06:25 PM 37.1264 -99.8383 73° East 456 525 41,000  Level Kansas City Center
Fri 10:07:26 PM 37.1661 -99.6700 73° East 454 522 41,000  Level Kansas City Center
Fri 10:08:28 PM 37.2022 -99.5250 73° East 457 526 41,000  Level Kansas City Center
Fri 10:09:29 PM 37.2403 -99.3658 73° East 456 525 41,000  Level Kansas City Center
Fri 10:10:30 PM 37.2761 -99.2114 74° East 460 529 41,000  Level Kansas City Center
Fri 10:11:32 PM 37.3125 -99.0575 73° East 460 529 41,000  Level Kansas City Center
Fri 10:12:33 PM 37.3497 -98.9028 73° East 462 532 41,000  Level Kansas City Center
Fri 10:13:34 PM 37.3836 -98.7486 74° East 461 531 41,000  Level Kansas City Center
Fri 10:14:36 PM 37.4183 -98.5928 74° East 462 532 41,000  Level Kansas City Center
Fri 10:15:37 PM 37.4603 -98.4086 74° East 459 528 41,000  Level Kansas City Center
Fri 10:16:39 PM 37.4947 -98.2567 74° East 456 525 41,000  Level Kansas City Center
Fri 10:17:40 PM 37.5294 -98.1039 74° East 457 526 41,000  Level Kansas City Center
Fri 10:18:41 PM 37.5622 -97.9536 75° East 451 519 41,000  Level Kansas City Center
Fri 10:19:43 PM 37.5958 -97.8031 74° East 451 519 41,000  Level Kansas City Center
Fri 10:20:44 PM 37.6297 -97.6550 74° East 446 513 41,000  Level Kansas City Center
Fri 10:21:45 PM 37.6617 -97.5044 75° East 448 516 41,000  Level Kansas City Center
Fri 10:22:47 PM 37.7014 -97.3244 74° East 448 516 41,000  Level Kansas City Center
Fri 10:23:48 PM 37.7344 -97.1733 74° East 448 516 41,000  Level Kansas City Center
Fri 10:24:49 PM 37.7661 -97.0217 75° East 447 514 41,000  Level Kansas City Center
Fri 10:25:50 PM 37.7992 -96.8700 75° East 449 517 41,000  Level Kansas City Center
Fri 10:26:52 PM 37.8314 -96.7172 75° East 450 518 41,000  Level Kansas City Center
Fri 10:27:53 PM 37.8636 -96.5633 75° East 452 520 41,000  Level Kansas City Center
Fri 10:28:54 PM 37.8972 -96.4058 75° East 451 519 41,000  Level Kansas City Center
Fri 10:29:55 PM 37.9281 -96.2558 75° East 453 521 41,000  Level Kansas City Center
Fri 10:30:57 PM 37.9653 -96.0750 75° East 452 520 41,000  Level Kansas City Center
Fri 10:31:58 PM 37.9953 -95.9272 76° East 451 519 41,000  Level Kansas City Center
Fri 10:32:59 PM 38.0258 -95.7800 75° East 451 519 41,000  Level Kansas City Center
Fri 10:34:00 PM 38.0603 -95.6064 76° East 455 524 41,000  Level Kansas City Center
Fri 10:35:01 PM 38.0894 -95.4592 76° East 454 522 41,000  Level Kansas City Center
Fri 10:36:03 PM 38.1236 -95.2869 76° East 452 520 41,000  Level Kansas City Center
Fri 10:37:04 PM 38.1531 -95.1397 76° East 450 518 41,000  Level Kansas City Center
Fri 10:38:05 PM 38.1819 -94.9925 76° East 448 516 41,000  Level Kansas City Center
Fri 10:39:06 PM 38.2147 -94.8208 76° East 450 518 41,000  Level Kansas City Center
Fri 10:40:07 PM 38.2439 -94.6739 76° East 450 518 41,000  Level Kansas City Center
Fri 10:41:08 PM 38.2758 -94.5011 77° East 450 518 41,000  Level Kansas City Center
Fri 10:42:10 PM 38.3033 -94.3558 76° East 448 516 41,000  Level Kansas City Center
Fri 10:43:11 PM 38.3317 -94.2097 76° East 447 514 41,000  Level Kansas City Center
Fri 10:44:12 PM 38.3633 -94.0331 77° East 446 513 41,000  Level Kansas City Center
Fri 10:45:13 PM 38.3919 -93.8772 77° East 448 516 41,000  Level Kansas City Center
Fri 10:46:14 PM 38.4208 -93.7219 77° East 448 516 41,000  Level Kansas City Center
Fri 10:47:15 PM 38.4494 -93.5642 77° East 452 520 41,000  Level Kansas City Center
Fri 10:48:16 PM 38.4781 -93.4069 77° East 453 521 41,000  Level Kansas City Center
Fri 10:49:17 PM 38.5061 -93.2486 77° East 453 521 41,000  Level Kansas City Center
Fri 10:50:18 PM 38.5339 -93.0911 77° East 452 520 41,000  Level Kansas City Center
Fri 10:51:19 PM 38.5625 -92.9331 77° East 454 522 41,000  Level Kansas City Center
Fri 10:52:20 PM 38.5894 -92.7750 78° East 453 521 41,000  Level Kansas City Center
Fri 10:53:21 PM 38.6167 -92.6189 77° East 449 517 41,000  Level Kansas City Center
Fri 10:54:22 PM 38.6436 -92.4636 77° East 445 512 41,000  Level Kansas City Center
Fri 10:55:23 PM 38.6692 -92.3061 78° East 446 513 41,000  Level Kansas City Center
Fri 10:56:24 PM 38.6950 -92.1519 78° East 443 510 41,000  Level Kansas City Center
Fri 10:57:25 PM 38.7214 -91.9981 78° East 441 507 41,000  Level Kansas City Center
Fri 10:58:26 PM 38.7469 -91.8431 78° East 441 507 41,000  Level Kansas City Center
Fri 10:59:27 PM 38.7719 -91.6917 78° East 442 509 41,000  Level Kansas City Center
Fri 11:00:28 PM 38.7961 -91.5356 79° East 445 512 41,000  Level Kansas City Center
Fri 11:01:29 PM 38.8217 -91.3825 78° East 442 509 41,000  Level Kansas City Center
Fri 11:02:30 PM 38.8461 -91.2286 78° East 442 509 41,000  Level Kansas City Center
Fri 11:03:31 PM 38.8703 -91.0756 78° East 439 505 41,000  Level Kansas City Center
Fri 11:04:32 PM 38.8994 -90.8906 78° East 440 506 41,000  Level Kansas City Center
Fri 11:05:33 PM 38.9242 -90.7361 78° East 440 506 41,000  Level Kansas City Center
Fri 11:06:34 PM 38.9486 -90.5778 79° East 445 512 41,000  Level Kansas City Center
Fri 11:07:35 PM 38.9733 -90.4183 79° East 449 517 41,000  Level Kansas City Center
Fri 11:08:36 PM 38.9978 -90.2589 79° East 450 518 41,000  Level Kansas City Center
Fri 11:09:37 PM 39.0211 -90.0997 79° East 450 518 41,000  Level Kansas City Center
Fri 11:10:38 PM 39.0464 -89.9292 79° East 452 520 41,000  Level Kansas City Center
Fri 11:11:39 PM 39.0694 -89.7700 79° East 452 520 41,000  Level Kansas City Center
Fri 11:12:40 PM 39.0925 -89.6100 79° East 453 521 41,000  Level Kansas City Center
Fri 11:13:41 PM 39.1144 -89.4511 80° East 452 520 41,000  Level Kansas City Center
Fri 11:14:42 PM 39.1367 -89.2936 80° East 449 517 41,000  Level Kansas City Center
Fri 11:15:43 PM 39.1569 -89.1492 80° East 446 513 41,000  Level Kansas City Center
Fri 11:16:44 PM 39.1806 -88.9944 79° East 443 510 41,000  Level Kansas City Center
Fri 11:17:45 PM 39.2008 -88.8375 80° East 443 510 41,000  Level Kansas City Center
Fri 11:18:46 PM 39.2228 -88.6831 80° East 442 509 41,000  Level Kansas City Center
Fri 11:19:46 PM 39.2456 -88.5244 79° East 442 509 41,000  Level Kansas City Center
Fri 11:20:47 PM 39.2664 -88.3700 80° East 440 506 41,000  Level Kansas City Center
Fri 11:21:48 PM 39.2869 -88.2139 80° East 439 505 41,000  Level Kansas City Center
Fri 11:22:49 PM 39.3114 -88.0258 80° East 440 506 41,000  Level Kansas City Center
Fri 11:23:50 PM 39.3308 -87.8678 81° East 442 509 41,000  Level Kansas City Center
Fri 11:24:31 PM 39.3417 -87.7767 81° East 441 507 41,000  Level Indianapolis Center
Fri 11:25:32 PM 39.3622 -87.6189 80° East 437 503 41,000  Level Indianapolis Center
Fri 11:26:33 PM 39.3825 -87.4633 80° East 440 506 41,000  Level Indianapolis Center
Fri 11:27:34 PM 39.4022 -87.3072 81° East 442 509 41,000  Level Indianapolis Center
Fri 11:28:34 PM 39.4206 -87.1497 81° East 445 512 41,000  Level Indianapolis Center
Fri 11:29:35 PM 39.4400 -86.9947 81° East 439 505 41,000  Level Indianapolis Center
Fri 11:30:36 PM 39.4589 -86.8378 81° East 444 511 41,000  Level Indianapolis Center
Fri 11:32:37 PM 39.4981 -86.4939 81° East 443 510 41,000  Level Indianapolis Center
Fri 11:33:38 PM 39.5169 -86.3381 81° East 445 512 41,000  Level Indianapolis Center
Fri 11:34:39 PM 39.5339 -86.1825 82° East 446 513 41,000  Level Indianapolis Center
Fri 11:35:40 PM 39.5517 -86.0272 82° East 443 510 41,000  Level Indianapolis Center
Fri 11:36:40 PM 39.5700 -85.8722 81° East 442 509 41,000  Level Indianapolis Center
Fri 11:37:41 PM 39.5867 -85.7158 82° East 442 509 41,000  Level Indianapolis Center
Fri 11:38:42 PM 39.6042 -85.5614 82° East 437 503 41,000  Level Indianapolis Center
Fri 11:39:43 PM 39.6208 -85.4061 82° East 436 502 41,000  Level Indianapolis Center
Fri 11:40:43 PM 39.6369 -85.2528 82° East 433 498 41,000  Level Indianapolis Center
Fri 11:41:44 PM 39.6489 -85.0978 84° East 434 499 41,000  Level Indianapolis Center
Fri 11:42:45 PM 39.6586 -84.9114 86° East 434 499 41,000  Level Indianapolis Center
Fri 11:43:46 PM 39.6686 -84.7597 85° East 435 501 41,000  Level Indianapolis Center
Fri 11:44:46 PM 39.6794 -84.6008 85° East 439 505 41,000  Level Indianapolis Center
Fri 11:45:47 PM 39.6881 -84.4400 86° East 443 510 41,000  Level Indianapolis Center
Fri 11:46:48 PM 39.6975 -84.2781 86° East 447 514 41,000  Level Indianapolis Center
Fri 11:47:49 PM 39.7067 -84.1136 86° East 452 520 41,000  Level Indianapolis Center
Fri 11:48:50 PM 39.7158 -83.9481 86° East 455 524 41,000  Level Indianapolis Center
Fri 11:49:50 PM 39.7242 -83.7831 86° East 458 527 41,000  Level Indianapolis Center
Fri 11:50:51 PM 39.7319 -83.6189 86° East 456 525 41,000  Level Indianapolis Center
Fri 11:51:52 PM 39.7408 -83.4586 86° East 461 531 41,000  Level Indianapolis Center
Fri 11:52:53 PM 39.7494 -83.2922 86° East 459 528 41,000  Level Indianapolis Center
Fri 11:53:53 PM 39.7567 -83.1269 87° East 458 527 41,000  Level Indianapolis Center
Fri 11:54:54 PM 39.7642 -82.9628 87° East 455 524 41,000  Level Indianapolis Center
Fri 11:55:55 PM 39.7717 -82.7978 87° East 455 524 41,000  Level Indianapolis Center
Fri 11:56:56 PM 39.7789 -82.6339 87° East 453 521 41,000  Level Indianapolis Center
Fri 11:57:56 PM 39.7867 -82.4439 87° East 448 516 41,000  Level Indianapolis Center
Fri 11:58:57 PM 39.7939 -82.2828 87° East 445 512 41,000  Level Indianapolis Center
Fri 11:59:58 PM 39.7994 -82.1217 87° East 444 511 41,000  Level Indianapolis Center
Sat 12:00:59 AM 39.7956 -81.9611 92° East 443 510 41,000  Level Indianapolis Center
Sat 12:02:00 AM 39.7814 -81.7994 96° East 446 513 41,000  Level Indianapolis Center
Sat 12:03:00 AM 39.7678 -81.6400 96° East 440 506 41,000  Level Indianapolis Center
Sat 12:04:00 AM 39.7611 -81.4986 93° East 443 510 41,000  Level Cleveland Center
Sat 12:05:00 AM 39.7458 -81.3392 97° East 443 510 41,000  Level Cleveland Center
Sat 12:05:59 AM 39.7300 -81.1797 97° East 443 510 41,000  Level Cleveland Center
Sat 12:06:59 AM 39.7161 -81.0203 96° East 443 510 41,000  Level Cleveland Center
Sat 12:08:00 AM 39.7019 -80.8611 97° East 443 510 41,000  Level Cleveland Center
Sat 12:09:00 AM 39.6897 -80.7044 96° East 443 510 41,000  Level Cleveland Center
Sat 12:10:58 AM 39.6597 -80.3897 97° East 443 510 41,000  Level Washington Center
Sat 12:11:59 AM 39.6453 -80.2297 97° East 443 510 41,000  Level Washington Center
Sat 12:12:59 AM 39.6283 -80.0697 98° East 449 517 41,000  Level Washington Center
Sat 12:14:01 AM 39.6114 -79.9069 98° East 449 517 41,000  Level Washington Center
Sat 12:15:01 AM 39.5942 -79.7469 98° East 449 517 41,000  Level Washington Center
Sat 12:16:01 AM 39.5789 -79.5844 97° East 449 517 41,000  Level Washington Center
Sat 12:16:59 AM 39.5633 -79.4222 97° East 449 517 41,000  Level Washington Center
Sat 12:17:59 AM 39.5439 -79.2408 98° East 449 517 41,000 -1,000 Level Washington Center
Sat 12:18:59 AM 39.5256 -79.0811 98° East 455 524 39,000 -2,420 Descending Washington Center
Sat 12:19:58 AM 39.5094 -78.9189 97° East 450 518 36,200 -3,200 Descending Washington Center
Sat 12:20:59 AM 39.4889 -78.7539 99° East 450 518 32,600 -3,650 Descending Washington Center
Sat 12:21:58 AM 39.4703 -78.5864 98° East 456 525 28,900 -3,400 Descending Washington Center
Sat 12:22:59 AM 39.4514 -78.4217 98° East 466 536 25,800 -2,975 Descending Washington Center
Sat 12:23:59 AM 39.4339 -78.2706 98° East 458 527 22,900 -2,800 Descending Washington Center
Sat 12:24:59 AM 39.4161 -78.1247 99° East 430 495 20,200 -2,571 Descending Washington Center
Sat 12:25:58 AM 39.4022 -77.9872 97° East 404 465 17,800 -2,550 Descending Washington Center
Sat 12:26:59 AM 39.3864 -77.8472 98° East 390 449 15,100 -2,016 Descending Washington Center
Sat 12:28:00 AM 39.3822 -77.7236 92° East 368 423 13,700 -1,525 Descending Washington Center
Sat 12:29:01 AM 39.3550 -77.6100 107° East 346 398 12,000 -1,259 Descending Washington Center
Sat 12:29:21 AM 39.3500 -77.5667 98° East 320 368 12,000  Level Potomac TRACON
Sat 12:30:15 AM 39.3167 -77.4667 113° Southeast 314 361 12,000 -1,053 Level Potomac TRACON
Sat 12:31:15 AM 39.3000 -77.3667 102° East 313 360 10,000 -2,000 Descending Potomac TRACON
Sat 12:32:15 AM 39.2667 -77.2500 110° East 304 350 8,000 -1,850 Descending Potomac TRACON
Sat 12:33:15 AM 39.2500 -77.1500 102° East 285 328 6,300 -1,850 Descending Potomac TRACON
Sat 12:34:15 AM 39.2333 -77.0667 104° East 275 316 4,300 -1,900 Descending Potomac TRACON
Sat 12:35:15 AM 39.2000 -76.9667 113° Southeast 266 306 2,500 -947 Descending Potomac TRACON
Sat 12:36:09 AM 39.1833 -76.9000 108° East 205 236 2,500  Level Potomac TRACON
Sat 12:37:09 AM 39.1833 -76.8500 90° East 134 154 2,500 -300 Level Potomac TRACON
Sat 12:38:09 AM 39.1833 -76.8000 90° East 122 140 1,900 -600 Descending Potomac TRACON
Sat 12:39:09 AM 39.1833 -76.7667 90° East 122 140 1,300 -650 Descending Potomac TRACON
Sat 12:40:09 AM 39.1833 -76.7167 90° East 123 142 600 -700 Descending Potomac TRACON
Sat 12:42:00 AM 39.1667 -76.6667 142° Southeast  Level FlightAware Approximate
Sat 12:49:00 AM 39.1754 -76.6683 142° Southeast  Level Estimated
Sat 12:50:00 AM 39.1754 -76.6683 142° Southeast  Level Estimated
Sat 12:51:00 AM 39.1754 -76.6683 142° Southeast  Level Estimated
Sat 12:52:00 AM 39.1754 -76.6683 142° Southeast  Level Estimated

Login

Don't have an account? Register now (free) for customized features, flight alerts, and more!